sensor_id;sensor_type;location;lat;lon;timestamp;temperature;humidity
29345;DHT22;16339;48.748;2.222;2022-12-18T00:01:18;3.20;68.00
29345;DHT22;16339;48.748;2.222;2022-12-18T00:03:55;3.20;67.80
29345;DHT22;16339;48.748;2.222;2022-12-18T00:06:26;3.10;67.60
29345;DHT22;16339;48.748;2.222;2022-12-18T00:08:57;3.00;67.90
29345;DHT22;16339;48.748;2.222;2022-12-18T00:11:30;3.00;68.00
29345;DHT22;16339;48.748;2.222;2022-12-18T00:14:00;3.00;68.30
29345;DHT22;16339;48.748;2.222;2022-12-18T00:16:29;3.00;68.40
29345;DHT22;16339;48.748;2.222;2022-12-18T00:19:01;3.00;68.30
29345;DHT22;16339;48.748;2.222;2022-12-18T00:21:38;2.90;68.20
29345;DHT22;16339;48.748;2.222;2022-12-18T00:24:09;2.90;68.30
29345;DHT22;16339;48.748;2.222;2022-12-18T00:26:44;2.90;68.30
29345;DHT22;16339;48.748;2.222;2022-12-18T00:29:14;2.80;68.30
29345;DHT22;16339;48.748;2.222;2022-12-18T00:31:45;2.90;68.60
29345;DHT22;16339;48.748;2.222;2022-12-18T00:34:14;2.80;68.70
29345;DHT22;16339;48.748;2.222;2022-12-18T00:36:43;2.80;68.60
29345;DHT22;16339;48.748;2.222;2022-12-18T00:39:13;2.80;68.80
29345;DHT22;16339;48.748;2.222;2022-12-18T00:41:45;2.80;68.90
29345;DHT22;16339;48.748;2.222;2022-12-18T00:44:26;2.80;68.60
29345;DHT22;16339;48.748;2.222;2022-12-18T00:46:55;2.80;68.40
29345;DHT22;16339;48.748;2.222;2022-12-18T00:49:24;2.70;68.60
29345;DHT22;16339;48.748;2.222;2022-12-18T00:51:53;2.70;68.50
29345;DHT22;16339;48.748;2.222;2022-12-18T00:54:22;2.70;68.50
29345;DHT22;16339;48.748;2.222;2022-12-18T00:57:04;2.60;68.20
29345;DHT22;16339;48.748;2.222;2022-12-18T00:59:33;2.60;68.20
29345;DHT22;16339;48.748;2.222;2022-12-18T01:02:12;2.60;68.30
29345;DHT22;16339;48.748;2.222;2022-12-18T01:04:53;2.50;68.30
29345;DHT22;16339;48.748;2.222;2022-12-18T01:09:58;2.50;68.40
29345;DHT22;16339;48.748;2.222;2022-12-18T01:12:46;2.50;68.40
29345;DHT22;16339;48.748;2.222;2022-12-18T01:15:16;2.50;68.40
29345;DHT22;16339;48.748;2.222;2022-12-18T01:17:48;2.60;69.30
29345;DHT22;16339;48.748;2.222;2022-12-18T01:20:18;2.60;68.90
29345;DHT22;16339;48.748;2.222;2022-12-18T01:22:47;2.60;68.80
29345;DHT22;16339;48.748;2.222;2022-12-18T01:25:18;2.60;68.80
29345;DHT22;16339;48.748;2.222;2022-12-18T01:30:19;2.50;68.20
29345;DHT22;16339;48.748;2.222;2022-12-18T01:32:48;2.50;68.10
29345;DHT22;16339;48.748;2.222;2022-12-18T01:35:17;2.50;67.80
29345;DHT22;16339;48.748;2.222;2022-12-18T01:37:47;2.50;68.00
29345;DHT22;16339;48.748;2.222;2022-12-18T01:40:27;2.50;68.10
29345;DHT22;16339;48.748;2.222;2022-12-18T01:43:08;2.50;68.40
29345;DHT22;16339;48.748;2.222;2022-12-18T01:45:39;2.50;68.10
29345;DHT22;16339;48.748;2.222;2022-12-18T01:48:11;2.50;67.90
29345;DHT22;16339;48.748;2.222;2022-12-18T01:50:42;2.50;67.80
29345;DHT22;16339;48.748;2.222;2022-12-18T01:53:18;2.50;68.00
29345;DHT22;16339;48.748;2.222;2022-12-18T01:55:53;2.50;67.40
29345;DHT22;16339;48.748;2.222;2022-12-18T01:58:39;2.50;67.50
29345;DHT22;16339;48.748;2.222;2022-12-18T02:01:10;2.40;67.50
29345;DHT22;16339;48.748;2.222;2022-12-18T02:03:42;2.40;67.70
29345;DHT22;16339;48.748;2.222;2022-12-18T02:06:20;2.40;67.70
29345;DHT22;16339;48.748;2.222;2022-12-18T02:09:02;2.40;67.50
29345;DHT22;16339;48.748;2.222;2022-12-18T02:11:41;2.40;67.60
29345;DHT22;16339;48.748;2.222;2022-12-18T02:14:27;2.40;67.80
29345;DHT22;16339;48.748;2.222;2022-12-18T02:24:35;2.40;67.50
29345;DHT22;16339;48.748;2.222;2022-12-18T02:27:13;2.30;67.40
29345;DHT22;16339;48.748;2.222;2022-12-18T02:29:46;2.30;67.40
29345;DHT22;16339;48.748;2.222;2022-12-18T02:32:20;2.30;67.40
29345;DHT22;16339;48.748;2.222;2022-12-18T02:34:51;2.30;67.70
29345;DHT22;16339;48.748;2.222;2022-12-18T02:37:21;2.30;67.90
29345;DHT22;16339;48.748;2.222;2022-12-18T02:39:52;2.30;68.40
29345;DHT22;16339;48.748;2.222;2022-12-18T02:42:26;2.30;68.10
29345;DHT22;16339;48.748;2.222;2022-12-18T02:44:56;2.30;67.70
29345;DHT22;16339;48.748;2.222;2022-12-18T02:47:30;2.20;67.40
29345;DHT22;16339;48.748;2.222;2022-12-18T02:50:07;2.20;67.20
29345;DHT22;16339;48.748;2.222;2022-12-18T02:52:44;2.20;67.50
29345;DHT22;16339;48.748;2.222;2022-12-18T02:55:22;2.20;67.80
29345;DHT22;16339;48.748;2.222;2022-12-18T02:58:03;2.20;68.10
29345;DHT22;16339;48.748;2.222;2022-12-18T03:00:37;2.20;68.10
29345;DHT22;16339;48.748;2.222;2022-12-18T03:03:15;2.10;68.00
29345;DHT22;16339;48.748;2.222;2022-12-18T03:05:51;2.10;67.50
29345;DHT22;16339;48.748;2.222;2022-12-18T03:08:27;2.10;67.40
29345;DHT22;16339;48.748;2.222;2022-12-18T03:10:59;2.10;67.20
29345;DHT22;16339;48.748;2.222;2022-12-18T03:13:36;2.10;67.50
29345;DHT22;16339;48.748;2.222;2022-12-18T03:16:07;2.10;67.70
29345;DHT22;16339;48.748;2.222;2022-12-18T03:18:39;2.10;67.70
29345;DHT22;16339;48.748;2.222;2022-12-18T03:21:11;2.10;67.80
29345;DHT22;16339;48.748;2.222;2022-12-18T03:23:46;2.10;67.60
29345;DHT22;16339;48.748;2.222;2022-12-18T03:26:18;2.10;67.50
29345;DHT22;16339;48.748;2.222;2022-12-18T03:28:52;2.10;67.30
29345;DHT22;16339;48.748;2.222;2022-12-18T03:31:23;2.10;67.20
29345;DHT22;16339;48.748;2.222;2022-12-18T03:33:55;2.10;67.30
29345;DHT22;16339;48.748;2.222;2022-12-18T03:36:26;2.10;67.20
29345;DHT22;16339;48.748;2.222;2022-12-18T03:38:56;2.10;67.20
29345;DHT22;16339;48.748;2.222;2022-12-18T03:41:31;2.10;67.20
29345;DHT22;16339;48.748;2.222;2022-12-18T03:44:08;2.10;67.50
29345;DHT22;16339;48.748;2.222;2022-12-18T03:46:43;2.20;67.30
29345;DHT22;16339;48.748;2.222;2022-12-18T03:49:19;2.20;67.30
29345;DHT22;16339;48.748;2.222;2022-12-18T03:51:52;2.10;67.20
29345;DHT22;16339;48.748;2.222;2022-12-18T03:54:24;2.10;66.90
29345;DHT22;16339;48.748;2.222;2022-12-18T03:56:58;2.10;67.00
29345;DHT22;16339;48.748;2.222;2022-12-18T03:59:31;2.10;67.30
29345;DHT22;16339;48.748;2.222;2022-12-18T04:02:01;2.10;67.30
29345;DHT22;16339;48.748;2.222;2022-12-18T04:04:33;2.10;67.30
29345;DHT22;16339;48.748;2.222;2022-12-18T04:07:03;2.10;67.20
29345;DHT22;16339;48.748;2.222;2022-12-18T04:09:34;2.10;67.10
29345;DHT22;16339;48.748;2.222;2022-12-18T04:12:04;2.10;67.20
29345;DHT22;16339;48.748;2.222;2022-12-18T04:14:36;2.10;67.20
29345;DHT22;16339;48.748;2.222;2022-12-18T04:17:05;2.10;67.40
29345;DHT22;16339;48.748;2.222;2022-12-18T04:19:34;2.10;67.20
29345;DHT22;16339;48.748;2.222;2022-12-18T04:22:03;2.10;67.10
29345;DHT22;16339;48.748;2.222;2022-12-18T04:24:33;2.10;67.10
29345;DHT22;16339;48.748;2.222;2022-12-18T04:27:02;2.10;67.00
29345;DHT22;16339;48.748;2.222;2022-12-18T04:29:31;2.10;67.00
29345;DHT22;16339;48.748;2.222;2022-12-18T04:32:02;2.10;66.90
29345;DHT22;16339;48.748;2.222;2022-12-18T04:34:31;2.10;66.90
29345;DHT22;16339;48.748;2.222;2022-12-18T04:37:00;2.10;66.90
29345;DHT22;16339;48.748;2.222;2022-12-18T04:39:28;2.00;66.90
29345;DHT22;16339;48.748;2.222;2022-12-18T04:41:57;2.10;67.10
29345;DHT22;16339;48.748;2.222;2022-12-18T04:44:26;2.00;66.80
29345;DHT22;16339;48.748;2.222;2022-12-18T04:46:55;2.00;66.90
29345;DHT22;16339;48.748;2.222;2022-12-18T04:49:26;2.00;66.80
29345;DHT22;16339;48.748;2.222;2022-12-18T04:51:55;2.00;66.90
29345;DHT22;16339;48.748;2.222;2022-12-18T04:54:24;2.00;67.00
29345;DHT22;16339;48.748;2.222;2022-12-18T04:56:53;2.00;67.10
29345;DHT22;16339;48.748;2.222;2022-12-18T04:59:22;2.00;67.10
29345;DHT22;16339;48.748;2.222;2022-12-18T05:01:51;1.90;66.80
29345;DHT22;16339;48.748;2.222;2022-12-18T05:04:20;1.90;66.80
29345;DHT22;16339;48.748;2.222;2022-12-18T05:06:51;1.90;66.50
29345;DHT22;16339;48.748;2.222;2022-12-18T05:09:20;1.90;66.40
29345;DHT22;16339;48.748;2.222;2022-12-18T05:11:49;1.90;66.30
29345;DHT22;16339;48.748;2.222;2022-12-18T05:14:18;1.90;66.30
29345;DHT22;16339;48.748;2.222;2022-12-18T05:16:47;1.90;66.50
29345;DHT22;16339;48.748;2.222;2022-12-18T05:19:16;1.90;66.70
29345;DHT22;16339;48.748;2.222;2022-12-18T05:21:45;1.90;66.90
29345;DHT22;16339;48.748;2.222;2022-12-18T05:24:16;1.80;66.90
29345;DHT22;16339;48.748;2.222;2022-12-18T05:26:45;1.80;67.10
29345;DHT22;16339;48.748;2.222;2022-12-18T05:29:14;1.90;66.90
29345;DHT22;16339;48.748;2.222;2022-12-18T05:31:43;1.90;66.60
29345;DHT22;16339;48.748;2.222;2022-12-18T05:34:12;1.90;66.20
29345;DHT22;16339;48.748;2.222;2022-12-18T05:36:40;1.90;66.20
29345;DHT22;16339;48.748;2.222;2022-12-18T05:39:10;1.90;66.50
29345;DHT22;16339;48.748;2.222;2022-12-18T05:41:41;1.90;67.20
29345;DHT22;16339;48.748;2.222;2022-12-18T05:44:10;1.90;67.50
29345;DHT22;16339;48.748;2.222;2022-12-18T05:46:39;2.00;67.40
29345;DHT22;16339;48.748;2.222;2022-12-18T05:49:08;1.90;67.10
29345;DHT22;16339;48.748;2.222;2022-12-18T05:51:37;1.90;66.90
29345;DHT22;16339;48.748;2.222;2022-12-18T05:54:05;1.90;66.80
29345;DHT22;16339;48.748;2.222;2022-12-18T05:56:34;2.00;66.90
29345;DHT22;16339;48.748;2.222;2022-12-18T05:59:05;2.00;67.10
29345;DHT22;16339;48.748;2.222;2022-12-18T06:01:35;2.00;67.10
29345;DHT22;16339;48.748;2.222;2022-12-18T06:04:04;2.10;67.20
29345;DHT22;16339;48.748;2.222;2022-12-18T06:06:33;2.10;67.20
29345;DHT22;16339;48.748;2.222;2022-12-18T06:09:03;2.10;67.10
29345;DHT22;16339;48.748;2.222;2022-12-18T06:11:35;2.10;67.10
29345;DHT22;16339;48.748;2.222;2022-12-18T06:14:09;2.10;67.10
29345;DHT22;16339;48.748;2.222;2022-12-18T06:16:38;2.10;67.20
29345;DHT22;16339;48.748;2.222;2022-12-18T06:19:07;2.10;68.10
29345;DHT22;16339;48.748;2.222;2022-12-18T06:21:36;2.10;67.50
29345;DHT22;16339;48.748;2.222;2022-12-18T06:24:05;2.10;67.30
29345;DHT22;16339;48.748;2.222;2022-12-18T06:26:36;2.10;67.20
29345;DHT22;16339;48.748;2.222;2022-12-18T06:29:08;2.10;67.10
29345;DHT22;16339;48.748;2.222;2022-12-18T06:31:37;2.10;66.90
29345;DHT22;16339;48.748;2.222;2022-12-18T06:34:05;2.10;66.80
29345;DHT22;16339;48.748;2.222;2022-12-18T06:36:34;2.10;66.90
29345;DHT22;16339;48.748;2.222;2022-12-18T06:39:03;2.10;67.50
29345;DHT22;16339;48.748;2.222;2022-12-18T06:41:32;2.00;67.70
29345;DHT22;16339;48.748;2.222;2022-12-18T06:44:00;2.10;67.70
29345;DHT22;16339;48.748;2.222;2022-12-18T06:46:32;2.00;67.60
29345;DHT22;16339;48.748;2.222;2022-12-18T06:49:01;2.10;68.00
29345;DHT22;16339;48.748;2.222;2022-12-18T06:51:29;2.10;67.00
29345;DHT22;16339;48.748;2.222;2022-12-18T06:53:58;2.10;67.00
29345;DHT22;16339;48.748;2.222;2022-12-18T06:56:27;2.10;66.90
29345;DHT22;16339;48.748;2.222;2022-12-18T06:58:56;2.00;67.30
29345;DHT22;16339;48.748;2.222;2022-12-18T07:01:25;2.10;67.10
29345;DHT22;16339;48.748;2.222;2022-12-18T07:03:57;2.00;67.10
29345;DHT22;16339;48.748;2.222;2022-12-18T07:06:26;2.00;67.00
29345;DHT22;16339;48.748;2.222;2022-12-18T07:08:54;2.00;66.80
29345;DHT22;16339;48.748;2.222;2022-12-18T07:11:23;2.00;66.60
29345;DHT22;16339;48.748;2.222;2022-12-18T07:13:52;2.00;66.60
29345;DHT22;16339;48.748;2.222;2022-12-18T07:16:22;2.00;66.80
29345;DHT22;16339;48.748;2.222;2022-12-18T07:18:50;2.00;67.00
29345;DHT22;16339;48.748;2.222;2022-12-18T07:21:23;2.00;67.20
29345;DHT22;16339;48.748;2.222;2022-12-18T07:23:52;1.90;67.40
29345;DHT22;16339;48.748;2.222;2022-12-18T07:26:21;1.90;67.10
29345;DHT22;16339;48.748;2.222;2022-12-18T07:28:55;1.90;66.70
29345;DHT22;16339;48.748;2.222;2022-12-18T07:31:25;1.90;66.60
29345;DHT22;16339;48.748;2.222;2022-12-18T07:33:54;2.00;66.70
29345;DHT22;16339;48.748;2.222;2022-12-18T07:36:26;2.00;67.00
29345;DHT22;16339;48.748;2.222;2022-12-18T07:38:54;1.90;66.90
29345;DHT22;16339;48.748;2.222;2022-12-18T07:41:23;2.00;67.50
29345;DHT22;16339;48.748;2.222;2022-12-18T07:43:52;2.00;67.00
29345;DHT22;16339;48.748;2.222;2022-12-18T07:46:20;2.00;67.10
29345;DHT22;16339;48.748;2.222;2022-12-18T07:48:49;2.00;66.80
29345;DHT22;16339;48.748;2.222;2022-12-18T07:51:19;2.00;66.60
29345;DHT22;16339;48.748;2.222;2022-12-18T07:53:50;2.10;66.60
29345;DHT22;16339;48.748;2.222;2022-12-18T07:56:19;2.00;66.50
29345;DHT22;16339;48.748;2.222;2022-12-18T07:58:48;2.00;66.70
29345;DHT22;16339;48.748;2.222;2022-12-18T08:01:17;2.10;66.90
29345;DHT22;16339;48.748;2.222;2022-12-18T08:03:45;2.10;67.10
29345;DHT22;16339;48.748;2.222;2022-12-18T08:06:14;2.10;66.70
29345;DHT22;16339;48.748;2.222;2022-12-18T08:08:43;2.10;66.60
29345;DHT22;16339;48.748;2.222;2022-12-18T08:11:18;2.10;66.30
29345;DHT22;16339;48.748;2.222;2022-12-18T08:13:46;2.10;66.50
29345;DHT22;16339;48.748;2.222;2022-12-18T08:16:16;2.10;66.60
29345;DHT22;16339;48.748;2.222;2022-12-18T08:18:45;2.10;66.70
29345;DHT22;16339;48.748;2.222;2022-12-18T08:21:15;2.20;66.80
29345;DHT22;16339;48.748;2.222;2022-12-18T08:23:46;2.10;66.50
29345;DHT22;16339;48.748;2.222;2022-12-18T08:26:18;2.20;66.70
29345;DHT22;16339;48.748;2.222;2022-12-18T08:28:48;2.20;66.50
29345;DHT22;16339;48.748;2.222;2022-12-18T08:31:17;2.20;66.30
29345;DHT22;16339;48.748;2.222;2022-12-18T08:33:48;2.30;66.50
29345;DHT22;16339;48.748;2.222;2022-12-18T08:36:18;2.30;66.30
29345;DHT22;16339;48.748;2.222;2022-12-18T08:38:47;2.30;66.50
29345;DHT22;16339;48.748;2.222;2022-12-18T08:41:18;2.30;66.20
29345;DHT22;16339;48.748;2.222;2022-12-18T08:43:47;2.30;66.10
29345;DHT22;16339;48.748;2.222;2022-12-18T08:46:33;2.40;66.20
29345;DHT22;16339;48.748;2.222;2022-12-18T08:49:03;2.40;66.10
29345;DHT22;16339;48.748;2.222;2022-12-18T08:51:32;2.40;66.10
29345;DHT22;16339;48.748;2.222;2022-12-18T08:54:02;2.40;66.20
29345;DHT22;16339;48.748;2.222;2022-12-18T08:56:34;2.40;66.00
29345;DHT22;16339;48.748;2.222;2022-12-18T08:59:03;2.40;66.20
29345;DHT22;16339;48.748;2.222;2022-12-18T09:01:32;2.50;66.20
29345;DHT22;16339;48.748;2.222;2022-12-18T09:04:01;2.50;66.10
29345;DHT22;16339;48.748;2.222;2022-12-18T09:06:30;2.50;66.10
29345;DHT22;16339;48.748;2.222;2022-12-18T09:08:59;2.60;66.30
29345;DHT22;16339;48.748;2.222;2022-12-18T09:11:29;2.70;66.30
29345;DHT22;16339;48.748;2.222;2022-12-18T09:14:01;2.70;66.40
29345;DHT22;16339;48.748;2.222;2022-12-18T09:16:30;2.70;66.70
29345;DHT22;16339;48.748;2.222;2022-12-18T09:19:02;2.80;66.30
29345;DHT22;16339;48.748;2.222;2022-12-18T09:21:32;2.80;65.90
29345;DHT22;16339;48.748;2.222;2022-12-18T09:24:05;2.80;65.70
29345;DHT22;16339;48.748;2.222;2022-12-18T09:26:34;2.80;65.70
29345;DHT22;16339;48.748;2.222;2022-12-18T09:29:06;2.90;66.00
29345;DHT22;16339;48.748;2.222;2022-12-18T09:31:36;2.90;66.20
29345;DHT22;16339;48.748;2.222;2022-12-18T09:34:06;2.90;66.10
29345;DHT22;16339;48.748;2.222;2022-12-18T09:36:35;3.00;66.20
29345;DHT22;16339;48.748;2.222;2022-12-18T09:39:04;3.00;65.80
29345;DHT22;16339;48.748;2.222;2022-12-18T09:41:43;2.90;65.50
29345;DHT22;16339;48.748;2.222;2022-12-18T09:44:20;3.00;65.40
29345;DHT22;16339;48.748;2.222;2022-12-18T09:46:53;2.90;65.40
29345;DHT22;16339;48.748;2.222;2022-12-18T09:49:25;3.00;65.70
29345;DHT22;16339;48.748;2.222;2022-12-18T09:51:57;3.00;65.90
29345;DHT22;16339;48.748;2.222;2022-12-18T09:54:31;3.10;66.30
29345;DHT22;16339;48.748;2.222;2022-12-18T09:57:01;3.10;66.30
29345;DHT22;16339;48.748;2.222;2022-12-18T09:59:36;3.10;66.10
29345;DHT22;16339;48.748;2.222;2022-12-18T10:02:16;3.20;66.10
29345;DHT22;16339;48.748;2.222;2022-12-18T10:04:48;3.20;65.80
29345;DHT22;16339;48.748;2.222;2022-12-18T10:07:26;3.20;65.80
29345;DHT22;16339;48.748;2.222;2022-12-18T10:10:03;3.20;65.50
29345;DHT22;16339;48.748;2.222;2022-12-18T10:12:41;3.30;65.80
29345;DHT22;16339;48.748;2.222;2022-12-18T10:15:21;3.30;65.90
29345;DHT22;16339;48.748;2.222;2022-12-18T10:17:56;3.30;66.10
29345;DHT22;16339;48.748;2.222;2022-12-18T10:20:40;3.40;66.10
29345;DHT22;16339;48.748;2.222;2022-12-18T10:23:17;3.50;65.80
29345;DHT22;16339;48.748;2.222;2022-12-18T10:25:52;3.50;65.60
29345;DHT22;16339;48.748;2.222;2022-12-18T10:28:23;3.60;65.50
29345;DHT22;16339;48.748;2.222;2022-12-18T10:30:55;3.60;65.10
29345;DHT22;16339;48.748;2.222;2022-12-18T10:33:29;3.60;65.30
29345;DHT22;16339;48.748;2.222;2022-12-18T10:35:58;3.70;65.40
29345;DHT22;16339;48.748;2.222;2022-12-18T10:38:28;3.70;65.50
29345;DHT22;16339;48.748;2.222;2022-12-18T10:40:59;3.70;65.20
29345;DHT22;16339;48.748;2.222;2022-12-18T10:43:30;3.80;65.20
29345;DHT22;16339;48.748;2.222;2022-12-18T10:46:12;3.80;65.30
29345;DHT22;16339;48.748;2.222;2022-12-18T10:48:53;3.80;65.10
29345;DHT22;16339;48.748;2.222;2022-12-18T10:51:24;3.80;64.90
29345;DHT22;16339;48.748;2.222;2022-12-18T10:53:57;3.80;65.20
29345;DHT22;16339;48.748;2.222;2022-12-18T10:56:27;3.90;65.60
29345;DHT22;16339;48.748;2.222;2022-12-18T10:58:59;3.90;65.80
29345;DHT22;16339;48.748;2.222;2022-12-18T11:01:46;4.00;65.60
29345;DHT22;16339;48.748;2.222;2022-12-18T11:04:20;4.00;65.40
29345;DHT22;16339;48.748;2.222;2022-12-18T11:06:58;4.00;65.20
29345;DHT22;16339;48.748;2.222;2022-12-18T11:09:28;4.00;65.10
29345;DHT22;16339;48.748;2.222;2022-12-18T11:11:59;4.10;65.40
29345;DHT22;16339;48.748;2.222;2022-12-18T11:14:30;4.00;65.30
29345;DHT22;16339;48.748;2.222;2022-12-18T11:17:03;4.00;65.50
29345;DHT22;16339;48.748;2.222;2022-12-18T11:19:34;4.00;65.40
29345;DHT22;16339;48.748;2.222;2022-12-18T11:22:19;4.00;65.20
29345;DHT22;16339;48.748;2.222;2022-12-18T11:24:54;4.00;65.10
29345;DHT22;16339;48.748;2.222;2022-12-18T11:27:23;4.10;66.00
29345;DHT22;16339;48.748;2.222;2022-12-18T11:29:52;4.10;66.10
29345;DHT22;16339;48.748;2.222;2022-12-18T11:32:41;4.10;66.00
29345;DHT22;16339;48.748;2.222;2022-12-18T11:35:30;4.10;66.10
29345;DHT22;16339;48.748;2.222;2022-12-18T11:38:13;4.10;65.80
29345;DHT22;16339;48.748;2.222;2022-12-18T11:40:46;4.20;65.40
29345;DHT22;16339;48.748;2.222;2022-12-18T11:43:21;4.20;65.30
29345;DHT22;16339;48.748;2.222;2022-12-18T11:45:55;4.20;65.20
29345;DHT22;16339;48.748;2.222;2022-12-18T11:48:32;4.30;65.50
29345;DHT22;16339;48.748;2.222;2022-12-18T11:51:04;4.30;65.80
29345;DHT22;16339;48.748;2.222;2022-12-18T11:57:19;4.40;65.70
29345;DHT22;16339;48.748;2.222;2022-12-18T12:00:36;4.40;65.40
29345;DHT22;16339;48.748;2.222;2022-12-18T12:03:50;4.40;65.40
29345;DHT22;16339;48.748;2.222;2022-12-18T12:06:28;4.50;65.50
29345;DHT22;16339;48.748;2.222;2022-12-18T12:09:10;4.50;65.60
29345;DHT22;16339;48.748;2.222;2022-12-18T12:11:49;4.60;65.80
29345;DHT22;16339;48.748;2.222;2022-12-18T12:14:34;4.60;65.80
29345;DHT22;16339;48.748;2.222;2022-12-18T12:17:18;4.60;65.70
29345;DHT22;16339;48.748;2.222;2022-12-18T12:20:02;4.60;65.40
29345;DHT22;16339;48.748;2.222;2022-12-18T12:22:44;4.60;65.00
29345;DHT22;16339;48.748;2.222;2022-12-18T12:25:29;4.60;65.10
29345;DHT22;16339;48.748;2.222;2022-12-18T12:28:11;4.60;65.20
29345;DHT22;16339;48.748;2.222;2022-12-18T12:30:52;4.70;65.50
29345;DHT22;16339;48.748;2.222;2022-12-18T12:33:34;4.70;65.80
29345;DHT22;16339;48.748;2.222;2022-12-18T12:36:15;4.80;66.00
29345;DHT22;16339;48.748;2.222;2022-12-18T12:38:57;4.80;65.60
29345;DHT22;16339;48.748;2.222;2022-12-18T12:41:37;4.90;65.50
29345;DHT22;16339;48.748;2.222;2022-12-18T12:44:28;4.90;65.40
29345;DHT22;16339;48.748;2.222;2022-12-18T12:47:04;4.90;65.30
29345;DHT22;16339;48.748;2.222;2022-12-18T12:49:37;5.00;66.40
29345;DHT22;16339;48.748;2.222;2022-12-18T12:52:20;5.00;65.60
29345;DHT22;16339;48.748;2.222;2022-12-18T12:54:51;5.10;65.70
29345;DHT22;16339;48.748;2.222;2022-12-18T12:57:23;5.10;65.40
29345;DHT22;16339;48.748;2.222;2022-12-18T13:00:01;5.10;65.30
29345;DHT22;16339;48.748;2.222;2022-12-18T13:02:35;5.20;65.30
29345;DHT22;16339;48.748;2.222;2022-12-18T13:05:14;5.20;65.30
29345;DHT22;16339;48.748;2.222;2022-12-18T13:07:52;5.20;65.40
29345;DHT22;16339;48.748;2.222;2022-12-18T13:10:31;5.20;65.70
29345;DHT22;16339;48.748;2.222;2022-12-18T13:13:04;5.20;65.60
29345;DHT22;16339;48.748;2.222;2022-12-18T13:15:39;5.10;65.50
29345;DHT22;16339;48.748;2.222;2022-12-18T13:18:19;5.10;65.80
29345;DHT22;16339;48.748;2.222;2022-12-18T13:20:51;5.10;66.00
29345;DHT22;16339;48.748;2.222;2022-12-18T13:23:34;5.10;65.90
29345;DHT22;16339;48.748;2.222;2022-12-18T13:26:34;5.10;66.10
29345;DHT22;16339;48.748;2.222;2022-12-18T13:29:04;5.10;66.20
29345;DHT22;16339;48.748;2.222;2022-12-18T13:31:59;5.10;66.20
29345;DHT22;16339;48.748;2.222;2022-12-18T13:34:30;5.10;66.20
29345;DHT22;16339;48.748;2.222;2022-12-18T13:37:38;5.10;66.30
29345;DHT22;16339;48.748;2.222;2022-12-18T13:43:31;5.10;67.10
29345;DHT22;16339;48.748;2.222;2022-12-18T13:49:00;5.10;66.90
29345;DHT22;16339;48.748;2.222;2022-12-18T13:51:32;5.10;67.10
29345;DHT22;16339;48.748;2.222;2022-12-18T13:54:05;5.10;67.10
29345;DHT22;16339;48.748;2.222;2022-12-18T13:56:43;5.10;67.10
29345;DHT22;16339;48.748;2.222;2022-12-18T13:59:17;5.10;67.00
29345;DHT22;16339;48.748;2.222;2022-12-18T14:01:50;5.10;67.10
29345;DHT22;16339;48.748;2.222;2022-12-18T14:04:22;5.10;67.20
29345;DHT22;16339;48.748;2.222;2022-12-18T14:06:55;5.10;67.50
29345;DHT22;16339;48.748;2.222;2022-12-18T14:09:26;5.10;67.70
29345;DHT22;16339;48.748;2.222;2022-12-18T14:11:58;5.10;68.00
29345;DHT22;16339;48.748;2.222;2022-12-18T14:14:44;5.10;68.10
29345;DHT22;16339;48.748;2.222;2022-12-18T14:17:14;5.20;68.90
29345;DHT22;16339;48.748;2.222;2022-12-18T14:19:45;5.10;68.80
29345;DHT22;16339;48.748;2.222;2022-12-18T14:22:20;5.10;68.50
29345;DHT22;16339;48.748;2.222;2022-12-18T14:25:13;5.20;68.30
29345;DHT22;16339;48.748;2.222;2022-12-18T14:27:44;5.10;68.30
29345;DHT22;16339;48.748;2.222;2022-12-18T14:30:30;5.20;68.40
29345;DHT22;16339;48.748;2.222;2022-12-18T14:33:03;5.20;68.40
29345;DHT22;16339;48.748;2.222;2022-12-18T14:35:33;5.20;68.70
29345;DHT22;16339;48.748;2.222;2022-12-18T14:38:21;5.20;68.70
29345;DHT22;16339;48.748;2.222;2022-12-18T14:40:55;5.20;68.80
29345;DHT22;16339;48.748;2.222;2022-12-18T14:43:24;5.30;68.90
29345;DHT22;16339;48.748;2.222;2022-12-18T14:45:57;5.30;68.70
29345;DHT22;16339;48.748;2.222;2022-12-18T14:48:36;5.30;68.70
29345;DHT22;16339;48.748;2.222;2022-12-18T14:51:15;5.30;68.90
29345;DHT22;16339;48.748;2.222;2022-12-18T14:53:47;5.30;69.10
29345;DHT22;16339;48.748;2.222;2022-12-18T14:56:18;5.30;69.50
29345;DHT22;16339;48.748;2.222;2022-12-18T14:58:49;5.40;69.70
29345;DHT22;16339;48.748;2.222;2022-12-18T15:01:27;5.40;69.90
29345;DHT22;16339;48.748;2.222;2022-12-18T15:03:57;5.40;70.30
29345;DHT22;16339;48.748;2.222;2022-12-18T15:06:31;5.40;70.10
29345;DHT22;16339;48.748;2.222;2022-12-18T15:09:03;5.40;69.80
29345;DHT22;16339;48.748;2.222;2022-12-18T15:11:35;5.40;69.80
29345;DHT22;16339;48.748;2.222;2022-12-18T15:17:16;5.40;70.00
29345;DHT22;16339;48.748;2.222;2022-12-18T15:19:47;5.40;70.20
29345;DHT22;16339;48.748;2.222;2022-12-18T15:22:22;5.40;70.20
29345;DHT22;16339;48.748;2.222;2022-12-18T15:24:51;5.40;70.30
29345;DHT22;16339;48.748;2.222;2022-12-18T15:27:29;5.40;70.30
29345;DHT22;16339;48.748;2.222;2022-12-18T15:30:17;5.40;70.20
29345;DHT22;16339;48.748;2.222;2022-12-18T15:32:50;5.40;70.00
29345;DHT22;16339;48.748;2.222;2022-12-18T15:35:21;5.40;70.00
29345;DHT22;16339;48.748;2.222;2022-12-18T15:37:51;5.40;70.20
29345;DHT22;16339;48.748;2.222;2022-12-18T15:40:21;5.40;70.60
29345;DHT22;16339;48.748;2.222;2022-12-18T15:42:53;5.40;70.60
29345;DHT22;16339;48.748;2.222;2022-12-18T15:45:35;5.40;70.80
29345;DHT22;16339;48.748;2.222;2022-12-18T15:48:18;5.40;70.80
29345;DHT22;16339;48.748;2.222;2022-12-18T15:50:49;5.40;70.80
29345;DHT22;16339;48.748;2.222;2022-12-18T15:53:18;5.40;70.90
29345;DHT22;16339;48.748;2.222;2022-12-18T15:55:47;5.40;71.90
29345;DHT22;16339;48.748;2.222;2022-12-18T15:58:28;5.40;71.30
29345;DHT22;16339;48.748;2.222;2022-12-18T16:00:59;5.40;71.40
29345;DHT22;16339;48.748;2.222;2022-12-18T16:03:30;5.40;71.50
29345;DHT22;16339;48.748;2.222;2022-12-18T16:05:59;5.40;71.70
29345;DHT22;16339;48.748;2.222;2022-12-18T16:08:28;5.50;72.00
29345;DHT22;16339;48.748;2.222;2022-12-18T16:10:58;5.50;72.10
29345;DHT22;16339;48.748;2.222;2022-12-18T16:13:26;5.40;72.40
29345;DHT22;16339;48.748;2.222;2022-12-18T16:15:55;5.40;72.90
29345;DHT22;16339;48.748;2.222;2022-12-18T16:18:24;5.40;73.00
29345;DHT22;16339;48.748;2.222;2022-12-18T16:20:55;5.40;73.10
29345;DHT22;16339;48.748;2.222;2022-12-18T16:23:24;5.40;73.30
29345;DHT22;16339;48.748;2.222;2022-12-18T16:25:53;5.40;73.40
29345;DHT22;16339;48.748;2.222;2022-12-18T16:28:22;5.40;73.60
29345;DHT22;16339;48.748;2.222;2022-12-18T16:30:51;5.40;73.90
29345;DHT22;16339;48.748;2.222;2022-12-18T16:33:20;5.50;74.00
29345;DHT22;16339;48.748;2.222;2022-12-18T16:35:52;5.50;74.30
29345;DHT22;16339;48.748;2.222;2022-12-18T16:38:23;5.50;75.30
29345;DHT22;16339;48.748;2.222;2022-12-18T16:40:52;5.50;74.80
29345;DHT22;16339;48.748;2.222;2022-12-18T16:43:33;5.50;74.70
29345;DHT22;16339;48.748;2.222;2022-12-18T16:46:02;5.50;74.80
29345;DHT22;16339;48.748;2.222;2022-12-18T16:48:31;5.50;75.00